createdAt,value
2022-08-17T00:02:27.305Z,20.92
2022-08-17T00:07:27.158Z,20.87
2022-08-17T00:12:41.715Z,20.88
2022-08-17T00:17:27.146Z,20.79
2022-08-17T00:22:35.150Z,20.68
2022-08-17T00:27:27.231Z,20.73
2022-08-17T00:33:15.640Z,20.65
2022-08-17T00:37:27.165Z,20.63
2022-08-17T00:42:30.999Z,20.69
2022-08-17T00:47:27.167Z,20.73
2022-08-17T00:52:27.199Z,20.71
2022-08-17T00:57:27.183Z,20.85
2022-08-17T01:02:27.215Z,20.84
2022-08-17T01:07:27.199Z,20.90
2022-08-17T01:12:27.230Z,20.74
2022-08-17T01:17:27.177Z,20.28
2022-08-17T01:22:27.209Z,20.53
2022-08-17T01:27:27.366Z,20.72
2022-08-17T01:32:27.255Z,20.74
2022-08-17T01:37:27.172Z,20.61
2022-08-17T01:42:27.258Z,20.40
2022-08-17T01:47:27.193Z,20.46
2022-08-17T01:52:27.215Z,20.79
2022-08-17T01:57:27.247Z,20.56
2022-08-17T02:02:31.395Z,20.43
2022-08-17T02:07:27.203Z,20.33
2022-08-17T02:12:39.479Z,20.08
2022-08-17T02:17:27.200Z,19.96
2022-08-17T02:22:27.250Z,19.97
2022-08-17T02:27:27.280Z,20.00
2022-08-17T02:32:28.648Z,20.02
2022-08-17T02:37:27.212Z,19.88
2022-08-17T02:42:27.275Z,20.08
2022-08-17T02:47:27.233Z,19.95
2022-08-17T02:52:41.926Z,19.88
2022-08-17T02:57:27.260Z,19.94
2022-08-17T03:02:27.266Z,19.81
2022-08-17T03:07:27.244Z,19.72
2022-08-17T03:12:27.271Z,19.70
2022-08-17T03:17:27.227Z,19.72
2022-08-17T03:22:36.600Z,19.54
2022-08-17T03:27:27.304Z,19.75
2022-08-17T03:32:27.332Z,19.51
2022-08-17T03:37:27.236Z,19.71
2022-08-17T03:42:32.085Z,19.88
2022-08-17T03:47:27.233Z,19.83
2022-08-17T03:52:27.314Z,19.93
2022-08-17T03:57:27.313Z,19.95
2022-08-17T04:02:27.292Z,20.05
2022-08-17T04:07:27.249Z,19.97
2022-08-17T04:12:27.284Z,19.92
2022-08-17T04:17:27.259Z,19.77
2022-08-17T04:22:32.708Z,19.80
2022-08-17T04:27:27.323Z,20.10
2022-08-17T04:33:03.640Z,19.99
2022-08-17T04:37:27.285Z,20.18
2022-08-17T04:42:27.327Z,20.10
2022-08-17T04:47:27.287Z,20.18
2022-08-17T04:52:32.331Z,20.28
2022-08-17T04:57:27.314Z,20.37
2022-08-17T05:02:27.336Z,20.60
2022-08-17T05:07:30.941Z,20.65
2022-08-17T05:12:27.344Z,20.70
2022-08-17T05:17:27.303Z,21.00
2022-08-17T05:22:27.353Z,22.54
2022-08-17T05:27:29.816Z,24.25
2022-08-17T05:32:39.145Z,25.35
2022-08-17T05:37:27.307Z,26.10
2022-08-17T05:42:27.349Z,26.24
2022-08-17T05:47:27.586Z,26.46
2022-08-17T05:52:27.351Z,26.40
2022-08-17T05:57:27.333Z,27.33
2022-08-17T06:02:27.347Z,27.48
2022-08-17T06:07:27.387Z,28.19
2022-08-17T06:12:27.368Z,28.57
2022-08-17T06:17:27.314Z,28.65
2022-08-17T06:22:27.376Z,27.27
2022-08-17T06:27:27.427Z,26.38
2022-08-17T06:32:27.396Z,25.68
2022-08-17T06:37:27.359Z,25.27
2022-08-17T06:42:54.017Z,25.09
2022-08-17T06:47:27.353Z,24.93
2022-08-17T06:52:37.606Z,24.98
2022-08-17T07:02:29.523Z,25.17
2022-08-17T07:07:27.363Z,26.21
2022-08-17T07:12:27.402Z,28.65
2022-08-17T07:17:46.780Z,29.26
2022-08-17T07:22:27.404Z,28.06
2022-08-17T07:27:27.354Z,27.24
2022-08-17T07:32:27.419Z,26.80
2022-08-17T07:37:27.373Z,26.77
2022-08-17T07:42:27.408Z,26.65
2022-08-17T07:47:27.434Z,26.68
2022-08-17T07:52:51.126Z,27.70
2022-08-17T07:57:30.006Z,29.93
2022-08-17T08:02:29.516Z,31.86
2022-08-17T08:07:27.378Z,32.75
2022-08-17T08:12:32.700Z,34.17
2022-08-17T08:17:27.423Z,34.63
2022-08-17T08:22:27.455Z,34.70
2022-08-17T08:27:27.409Z,34.43
2022-08-17T08:32:27.460Z,34.15
2022-08-17T08:37:33.879Z,34.38
2022-08-17T08:42:27.547Z,34.62
2022-08-17T08:47:27.449Z,34.38
2022-08-17T08:52:27.462Z,34.57
2022-08-17T08:57:32.914Z,35.01
2022-08-17T09:02:27.468Z,34.84
2022-08-17T09:07:27.422Z,34.77
2022-08-17T09:12:27.580Z,34.97
2022-08-17T09:17:27.462Z,34.79
2022-08-17T09:22:27.460Z,34.48
2022-08-17T09:27:27.430Z,34.42
2022-08-17T09:32:27.483Z,34.07
2022-08-17T09:37:27.439Z,34.19
2022-08-17T09:42:27.505Z,33.55
2022-08-17T09:47:27.503Z,33.85
2022-08-17T09:52:27.472Z,33.73
2022-08-17T09:57:30.679Z,33.32
2022-08-17T10:02:27.489Z,32.71
2022-08-17T10:07:27.451Z,32.68
2022-08-17T10:12:30.135Z,32.84
2022-08-17T10:17:27.536Z,32.40
2022-08-17T10:22:34.799Z,32.67
2022-08-17T10:27:27.507Z,32.34
2022-08-17T10:32:27.555Z,32.28
2022-08-17T10:37:27.476Z,32.23
2022-08-17T10:42:31.416Z,32.01
2022-08-17T10:47:27.547Z,31.70
2022-08-17T10:52:27.543Z,31.57
2022-08-17T10:57:27.479Z,31.74
2022-08-17T11:02:27.549Z,31.37
2022-08-17T11:07:27.487Z,30.59
2022-08-17T11:12:27.538Z,29.98
2022-08-17T11:17:27.539Z,30.29
2022-08-17T11:22:32.792Z,31.21
2022-08-17T11:27:27.500Z,30.46
2022-08-17T11:32:27.526Z,30.55
2022-08-17T11:37:27.515Z,30.52
2022-08-17T11:42:27.566Z,31.38
2022-08-17T11:47:27.576Z,31.04
2022-08-17T11:52:27.557Z,30.12
2022-08-17T11:57:27.521Z,30.10
2022-08-17T12:02:27.557Z,29.71
2022-08-17T12:07:27.529Z,29.81
2022-08-17T12:12:27.591Z,31.28
2022-08-17T12:17:41.244Z,31.39
2022-08-17T12:22:27.579Z,31.04
2022-08-17T12:27:47.700Z,30.35
2022-08-17T12:32:27.610Z,30.43
2022-08-17T12:37:27.540Z,29.67
2022-08-17T12:42:27.624Z,29.39
2022-08-17T12:47:29.448Z,30.24
2022-08-17T12:52:27.593Z,30.87
2022-08-17T12:57:27.554Z,30.45
2022-08-17T13:02:27.663Z,30.69
2022-08-17T13:07:27.608Z,30.46
2022-08-17T13:12:27.610Z,31.26
2022-08-17T13:17:27.588Z,30.56
2022-08-17T13:22:27.610Z,30.24
2022-08-17T13:27:27.592Z,29.30
2022-08-17T13:32:27.628Z,29.65
2022-08-17T13:37:27.594Z,30.10
2022-08-17T13:42:27.666Z,30.72
2022-08-17T13:47:27.621Z,31.36
2022-08-17T13:52:27.637Z,31.39
2022-08-17T13:57:27.592Z,32.20
2022-08-17T14:02:28.565Z,30.20
2022-08-17T14:07:27.603Z,31.07
2022-08-17T14:12:27.648Z,30.48
2022-08-17T14:17:27.643Z,30.14
2022-08-17T14:22:27.632Z,29.64
2022-08-17T14:27:27.610Z,30.19
2022-08-17T14:32:27.645Z,34.50
2022-08-17T14:37:27.628Z,38.63
2022-08-17T14:42:27.688Z,39.09
2022-08-17T14:47:27.663Z,39.66
2022-08-17T14:52:27.692Z,38.67
2022-08-17T14:57:34.319Z,38.89
2022-08-17T15:02:29.490Z,33.33
2022-08-17T15:07:30.810Z,30.94
2022-08-17T15:12:32.330Z,30.71
2022-08-17T15:17:43.664Z,30.88
2022-08-17T15:22:27.701Z,29.83
2022-08-17T15:27:32.784Z,29.54
2022-08-17T15:32:27.686Z,29.75
2022-08-17T15:37:27.654Z,29.26
2022-08-17T15:42:27.695Z,29.13
2022-08-17T15:47:27.682Z,29.46
2022-08-17T15:52:27.681Z,29.09
2022-08-17T15:57:27.666Z,29.05
2022-08-17T16:03:45.508Z,29.08
2022-08-17T16:07:27.675Z,29.00
2022-08-17T16:12:27.714Z,29.04
2022-08-17T16:17:39.223Z,28.96
2022-08-17T16:22:27.729Z,28.94
2022-08-17T16:27:27.676Z,29.03
2022-08-17T16:32:31.645Z,29.09
2022-08-17T16:37:27.685Z,28.71
2022-08-17T16:42:27.739Z,28.65
2022-08-17T16:47:27.724Z,28.90
2022-08-17T16:52:32.577Z,29.01
2022-08-17T16:57:27.698Z,29.07
2022-08-17T17:02:27.747Z,29.22
2022-08-17T17:07:27.703Z,29.14
2022-08-17T17:13:02.041Z,29.04
2022-08-17T17:17:27.753Z,28.69
2022-08-17T17:22:27.769Z,28.90
2022-08-17T17:27:27.701Z,29.00
2022-08-17T17:32:27.799Z,28.94
2022-08-17T17:37:27.976Z,28.67
2022-08-17T17:42:27.751Z,28.57
2022-08-17T17:47:27.746Z,28.45
2022-08-17T17:52:27.760Z,28.47
2022-08-17T17:57:27.744Z,28.41
2022-08-17T18:02:27.785Z,28.42
2022-08-17T18:07:27.778Z,28.39
2022-08-17T18:12:27.769Z,28.38
2022-08-17T18:17:28.207Z,28.36
2022-08-17T18:27:27.818Z,28.34
2022-08-17T18:32:27.863Z,28.14
2022-08-17T18:37:27.782Z,28.12
2022-08-17T18:42:27.794Z,28.10
2022-08-17T18:47:27.805Z,27.96
2022-08-17T18:52:27.760Z,27.82
2022-08-17T18:57:27.793Z,27.76
2022-08-17T19:02:45.220Z,27.67
2022-08-17T19:07:27.795Z,27.57
2022-08-17T19:12:27.776Z,27.39
2022-08-17T19:17:27.797Z,27.40
2022-08-17T19:22:29.010Z,27.42
2022-08-17T19:27:32.119Z,27.00
2022-08-17T19:32:27.850Z,26.87
2022-08-17T19:37:27.876Z,26.93
2022-08-17T19:42:27.784Z,26.63
2022-08-17T19:47:51.499Z,26.46
2022-08-17T19:52:27.900Z,26.36
2022-08-17T19:57:27.865Z,26.12
2022-08-17T20:02:27.867Z,25.85
2022-08-17T20:07:27.867Z,25.37
2022-08-17T20:12:27.872Z,25.62
2022-08-17T20:17:28.185Z,25.57
2022-08-17T20:22:27.832Z,25.44
2022-08-17T20:27:29.496Z,25.53
2022-08-17T20:32:27.872Z,25.17
2022-08-17T20:37:27.850Z,25.49
2022-08-17T20:42:27.832Z,25.52
2022-08-17T20:47:27.870Z,25.47
2022-08-17T20:52:27.845Z,25.25
2022-08-17T20:57:27.885Z,25.15
2022-08-17T21:02:27.864Z,25.11
2022-08-17T21:07:27.897Z,24.93
2022-08-17T21:12:27.840Z,24.71
2022-08-17T21:17:27.897Z,24.48
2022-08-17T21:22:27.862Z,24.72
2022-08-17T21:27:27.889Z,25.00
2022-08-17T21:32:27.886Z,24.65
2022-08-17T21:37:27.923Z,24.49
2022-08-17T21:42:27.856Z,24.55
2022-08-17T21:47:27.926Z,24.06
2022-08-17T21:52:27.859Z,24.08
2022-08-17T21:57:27.918Z,23.97
2022-08-17T22:02:27.886Z,23.73
2022-08-17T22:07:27.907Z,24.03
2022-08-17T22:12:27.855Z,23.94
2022-08-17T22:17:27.936Z,23.73
2022-08-17T22:22:27.892Z,23.46
2022-08-17T22:27:27.950Z,23.50
2022-08-17T22:32:27.918Z,23.53
2022-08-17T22:37:28.027Z,22.91
2022-08-17T22:42:27.890Z,22.74
2022-08-17T22:47:27.938Z,23.11
2022-08-17T22:52:32.068Z,23.14
2022-08-17T22:57:27.932Z,22.97
2022-08-17T23:02:28.032Z,23.00
2022-08-17T23:07:28.025Z,22.94
2022-08-17T23:12:27.903Z,23.15
2022-08-17T23:17:27.977Z,22.71
2022-08-17T23:22:27.911Z,23.07
2022-08-17T23:27:27.959Z,23.00
2022-08-17T23:32:27.982Z,22.98
2022-08-17T23:37:27.962Z,23.19
2022-08-17T23:42:27.921Z,23.21
2022-08-17T23:47:27.958Z,23.13
2022-08-17T23:52:27.914Z,23.34
2022-08-17T23:57:35.889Z,23.15
